Time;durP1;ratioP1;P1;durP2;ratioP2;P2;SDS_P1;SDS_P2;PMS_P1;PMS_P2;Temp;Humidity;BMP_temperature;BMP_pressure;BME280_temperature;BME280_humidity;BME280_pressure;Samples;Min_cycle;Max_cycle;Signal;HPM_P1;HPM_P2
2023/09/25 00:01:39;;;;;;;2.20;2.10;;;13.90;99.90;;;;;;5056795;28;20230;-77
2023/09/25 00:04:05;;;;;;;2.33;2.20;;;13.90;99.90;;;;;;5057656;28;20624;-77
2023/09/25 00:06:31;;;;;;;2.00;1.90;;;13.90;99.90;;;;;;5057925;28;20187;-77
2023/09/25 00:08:56;;;;;;;2.30;2.20;;;13.80;99.90;;;;;;5057249;28;20172;-77
2023/09/25 00:11:22;;;;;;;3.70;1.97;;;13.80;99.90;;;;;;5057262;28;20212;-78
2023/09/25 00:13:48;;;;;;;2.90;2.40;;;13.70;99.90;;;;;;5039185;28;20176;-78
2023/09/25 00:16:16;;;;;;;4.33;2.00;;;13.70;99.90;;;;;;5057622;28;20179;-80
2023/09/25 00:18:42;;;;;;;2.20;2.10;;;13.70;99.90;;;;;;5044552;28;20179;-78
2023/09/25 00:21:08;;;;;;;2.27;2.17;;;13.60;99.90;;;;;;5051650;28;20188;-77
2023/09/25 00:23:34;;;;;;;2.10;2.00;;;13.60;99.90;;;;;;5056940;28;20217;-77
2023/09/25 00:26:04;;;;;;;2.60;2.40;;;13.50;99.90;;;;;;5065550;28;20195;-78
2023/09/25 00:28:30;;;;;;;2.23;2.13;;;13.50;99.90;;;;;;5041286;28;20180;-76
2023/09/25 00:30:56;;;;;;;2.10;2.00;;;13.40;99.90;;;;;;5071134;28;20199;-79
2023/09/25 00:33:22;;;;;;;2.10;1.93;;;13.40;99.90;;;;;;5077991;28;20160;-80
2023/09/25 00:35:48;;;;;;;2.80;2.00;;;13.30;99.90;;;;;;5051971;28;20179;-78
2023/09/25 00:38:14;;;;;;;2.40;2.20;;;13.30;99.90;;;;;;5057509;28;20172;-78
2023/09/25 00:40:40;;;;;;;2.17;2.07;;;13.30;99.90;;;;;;5077679;28;20227;-78
2023/09/25 00:43:06;;;;;;;2.57;2.37;;;13.20;99.90;;;;;;5063713;28;20552;-79
2023/09/25 00:45:36;;;;;;;2.23;2.10;;;13.20;99.90;;;;;;5057693;28;20175;-79
2023/09/25 00:48:03;;;;;;;2.57;2.30;;;13.10;99.90;;;;;;5057438;28;20212;-80
2023/09/25 00:50:32;;;;;;;2.97;2.43;;;13.10;99.90;;;;;;5056767;28;20226;-80
2023/09/25 00:53:07;;;;;;;2.50;2.30;;;13.10;99.90;;;;;;5056813;28;20262;-79
2023/09/25 00:55:35;;;;;;;2.63;2.43;;;13.10;99.90;;;;;;5058478;28;20550;-82
2023/09/25 00:58:02;;;;;;;2.37;2.17;;;13.00;99.90;;;;;;5062306;28;20261;-79
2023/09/25 01:00:28;;;;;;;2.23;2.13;;;13.00;99.90;;;;;;5070655;28;20200;-78
2023/09/25 01:02:54;;;;;;;2.40;2.20;;;13.00;99.90;;;;;;5072392;28;20198;-78
2023/09/25 01:05:19;;;;;;;2.63;2.40;;;12.90;99.90;;;;;;5059749;28;20190;-79
2023/09/25 01:07:45;;;;;;;2.73;2.53;;;12.90;99.90;;;;;;5056623;28;20254;-78
2023/09/25 01:10:17;;;;;;;3.07;2.13;;;12.90;99.90;;;;;;5057269;28;20180;-78
2023/09/25 01:12:43;;;;;;;2.50;2.30;;;12.90;99.90;;;;;;5039187;28;20591;-78
2023/09/25 01:15:09;;;;;;;2.30;2.20;;;12.90;99.90;;;;;;5056568;28;20242;-79
2023/09/25 01:17:36;;;;;;;2.10;2.00;;;12.90;99.90;;;;;;5056589;28;20207;-77
2023/09/25 01:20:12;;;;;;;2.67;2.27;;;12.90;99.90;;;;;;5039818;28;20191;-78
2023/09/25 01:22:46;;;;;;;2.10;2.00;;;12.80;99.90;;;;;;5056537;28;20172;-78
2023/09/25 01:25:12;;;;;;;2.53;2.33;;;12.80;99.90;;;;;;5056668;28;20160;-79
2023/09/25 01:27:39;;;;;;;2.50;2.37;;;12.80;99.90;;;;;;5056602;28;20247;-79
2023/09/25 01:30:08;;;;;;;2.20;2.10;;;12.80;99.90;;;;;;5056114;28;20175;-76
2023/09/25 01:32:38;;;;;;;2.50;2.30;;;12.80;99.90;;;;;;5056407;28;20172;-78
2023/09/25 01:35:14;;;;;;;2.40;2.20;;;12.80;99.90;;;;;;5056068;28;20259;-77
2023/09/25 01:37:40;;;;;;;2.40;2.20;;;12.70;99.90;;;;;;5056429;28;20169;-78
2023/09/25 01:40:17;;;;;;;2.37;2.27;;;12.80;99.90;;;;;;5055730;28;20172;-77
2023/09/25 01:42:47;;;;;;;2.50;2.07;;;12.60;99.90;;;;;;5056164;28;20258;-77
2023/09/25 01:45:16;;;;;;;2.13;2.03;;;12.60;99.90;;;;;;5037381;28;20186;-78
2023/09/25 01:47:51;;;;;;;2.27;2.10;;;12.50;99.90;;;;;;5037652;28;20183;-79
2023/09/25 01:50:18;;;;;;;2.30;2.10;;;12.50;99.90;;;;;;5055735;28;20667;-77
2023/09/25 01:52:47;;;;;;;2.00;1.90;;;12.50;99.90;;;;;;5055721;28;20190;-79
2023/09/25 01:55:13;;;;;;;3.27;2.07;;;12.40;99.90;;;;;;5055338;28;20195;-81
2023/09/25 01:57:39;;;;;;;2.03;1.90;;;12.40;99.90;;;;;;5066126;28;20184;-78
2023/09/25 02:00:09;;;;;;;1.73;1.73;;;12.40;99.90;;;;;;5056375;28;20199;-80
2023/09/25 02:02:42;;;;;;;1.93;1.83;;;12.40;99.90;;;;;;5078327;28;20182;-80
2023/09/25 02:05:08;;;;;;;4.60;2.07;;;12.40;99.90;;;;;;5070377;28;20243;-79
2023/09/25 02:07:34;;;;;;;2.17;2.07;;;12.40;99.90;;;;;;5055824;28;20168;-79
2023/09/25 02:10:00;;;;;;;2.00;1.90;;;12.40;99.90;;;;;;5063736;28;20186;-78
2023/09/25 02:12:26;;;;;;;2.70;1.90;;;12.40;99.90;;;;;;5037815;28;20187;-77
2023/09/25 02:14:57;;;;;;;4.03;1.83;;;12.40;99.90;;;;;;5055719;28;20206;-77
2023/09/25 02:17:22;;;;;;;2.17;2.07;;;12.40;99.90;;;;;;5055569;28;20160;-78
2023/09/25 02:19:48;;;;;;;3.53;2.07;;;12.40;99.90;;;;;;5055485;28;20175;-79
2023/09/25 02:22:14;;;;;;;2.30;2.20;;;12.30;99.90;;;;;;5055220;28;20176;-77
2023/09/25 02:24:40;;;;;;;5.93;2.90;;;12.40;99.90;;;;;;5055065;28;20530;-78
2023/09/25 02:27:05;;;;;;;2.47;2.37;;;12.40;99.90;;;;;;5054894;28;20537;-79
2023/09/25 02:29:31;;;;;;;1.90;1.80;;;12.40;99.90;;;;;;5055098;28;20169;-79
2023/09/25 02:31:57;;;;;;;2.40;2.30;;;12.40;99.90;;;;;;5056485;28;20284;-78
2023/09/25 02:34:23;;;;;;;1.97;1.87;;;12.50;99.90;;;;;;5059370;28;20207;-79
2023/09/25 02:36:49;;;;;;;3.57;3.00;;;12.50;99.90;;;;;;5059783;28;20250;-78
2023/09/25 02:39:15;;;;;;;2.87;1.80;;;12.50;99.90;;;;;;5059162;28;20214;-77
2023/09/25 02:41:41;;;;;;;1.77;1.67;;;12.50;99.90;;;;;;5053199;28;20239;-77
2023/09/25 02:44:07;;;;;;;2.03;1.93;;;12.50;99.90;;;;;;5057590;28;20189;-79
2023/09/25 02:46:32;;;;;;;1.80;1.80;;;12.60;99.90;;;;;;5055991;28;20166;-78
2023/09/25 02:48:58;;;;;;;2.77;1.87;;;12.50;99.90;;;;;;5054591;28;20171;-78
2023/09/25 02:51:24;;;;;;;2.23;2.00;;;12.40;99.90;;;;;;5056264;28;20233;-80
2023/09/25 02:53:52;;;;;;;1.90;1.80;;;12.40;99.90;;;;;;5078411;28;20191;-80
2023/09/25 02:56:18;;;;;;;1.50;1.50;;;12.30;99.90;;;;;;5061542;28;20170;-78
2023/09/25 02:58:44;;;;;;;1.93;1.83;;;12.30;99.90;;;;;;5055250;28;20169;-77
2023/09/25 03:01:10;;;;;;;1.77;1.70;;;12.20;99.90;;;;;;5072892;28;20257;-79
2023/09/25 03:03:36;;;;;;;1.60;1.60;;;12.20;99.90;;;;;;5065724;28;20220;-79
2023/09/25 03:06:02;;;;;;;1.80;1.80;;;12.10;99.90;;;;;;5036803;28;20181;-78
2023/09/25 03:08:27;;;;;;;1.80;1.70;;;12.00;99.90;;;;;;5054479;28;20172;-77
2023/09/25 03:10:53;;;;;;;1.80;1.77;;;12.10;99.90;;;;;;5054312;28;20200;-78
2023/09/25 03:13:19;;;;;;;1.90;1.80;;;12.00;99.90;;;;;;5036502;28;20277;-78
2023/09/25 03:15:45;;;;;;;2.03;1.90;;;12.00;99.90;;;;;;5054404;28;20168;-80
2023/09/25 03:18:11;;;;;;;2.00;1.90;;;12.10;99.90;;;;;;5036603;28;20178;-78
2023/09/25 03:20:38;;;;;;;1.60;1.60;;;11.90;99.90;;;;;;5054566;28;20633;-78
2023/09/25 03:23:04;;;;;;;1.50;1.50;;;11.90;99.90;;;;;;5054290;28;20170;-78
2023/09/25 03:25:40;;;;;;;1.93;1.83;;;11.80;99.90;;;;;;5054233;28;20254;-79
2023/09/25 03:28:05;;;;;;;2.00;1.60;;;11.80;99.90;;;;;;5053815;28;20183;-78
2023/09/25 03:30:31;;;;;;;2.00;1.90;;;11.80;99.90;;;;;;5053901;28;20205;-79
2023/09/25 03:32:57;;;;;;;1.70;1.60;;;11.40;99.90;;;;;;5036947;28;20179;-80
2023/09/25 03:35:23;;;;;;;2.80;1.90;;;11.80;99.90;;;;;;5052867;28;20186;-79
2023/09/25 03:37:49;;;;;;;1.80;1.70;;;11.80;99.90;;;;;;5036062;28;20176;-80
2023/09/25 03:40:15;;;;;;;1.63;1.63;;;11.80;99.90;;;;;;5054580;28;20208;-79
2023/09/25 03:42:41;;;;;;;1.93;1.90;;;11.80;99.90;;;;;;5054167;28;20654;-78
2023/09/25 03:45:08;;;;;;;1.83;1.73;;;11.90;99.90;;;;;;5056309;28;20622;-79
2023/09/25 03:47:35;;;;;;;2.50;1.60;;;12.00;99.90;;;;;;5066581;28;20172;-80
2023/09/25 03:50:04;;;;;;;1.80;1.70;;;11.90;99.90;;;;;;5062517;28;20176;-79
2023/09/25 03:52:30;;;;;;;1.90;1.80;;;11.80;99.90;;;;;;5054654;28;20193;-78
2023/09/25 03:54:56;;;;;;;1.77;1.77;;;11.90;99.90;;;;;;5054164;28;20220;-78
2023/09/25 03:57:22;;;;;;;2.00;1.90;;;11.80;99.90;;;;;;5054201;28;20672;-78
2023/09/25 03:59:48;;;;;;;2.27;1.90;;;11.80;99.90;;;;;;5054974;28;20183;-78
2023/09/25 04:02:13;;;;;;;1.97;1.87;;;11.80;99.90;;;;;;5054072;28;20224;-77
2023/09/25 04:04:39;;;;;;;1.80;1.70;;;11.70;99.90;;;;;;5053640;28;20171;-76
2023/09/25 04:07:05;;;;;;;1.70;1.60;;;11.70;99.90;;;;;;5053795;28;20645;-76
2023/09/25 04:09:31;;;;;;;1.90;1.80;;;11.70;99.90;;;;;;5054096;28;20173;-77
2023/09/25 04:11:59;;;;;;;1.73;1.67;;;11.70;99.90;;;;;;5053704;28;20203;-76
2023/09/25 04:14:27;;;;;;;1.80;1.80;;;11.70;99.90;;;;;;5036019;28;20602;-77
2023/09/25 04:16:54;;;;;;;2.40;2.30;;;11.70;99.90;;;;;;5054549;28;20232;-79
2023/09/25 04:19:20;;;;;;;2.03;1.93;;;11.60;99.90;;;;;;5055011;28;20175;-77
2023/09/25 04:21:47;;;;;;;2.10;2.00;;;11.60;99.90;;;;;;5055014;28;20694;-78
2023/09/25 04:24:13;;;;;;;2.13;2.03;;;11.70;99.90;;;;;;5054191;28;20264;-79
2023/09/25 04:26:41;;;;;;;2.07;1.97;;;11.70;99.90;;;;;;5053664;28;20625;-77
2023/09/25 04:29:14;;;;;;;2.23;2.10;;;11.70;99.90;;;;;;5054507;28;20282;-77
2023/09/25 04:31:40;;;;;;;2.73;2.10;;;11.70;99.90;;;;;;5057225;28;20210;-78
2023/09/25 04:34:10;;;;;;;2.30;2.10;;;11.70;99.90;;;;;;5057298;28;20247;-79
2023/09/25 04:36:37;;;;;;;2.60;2.03;;;11.70;99.90;;;;;;5057281;28;20174;-79
2023/09/25 04:39:03;;;;;;;2.00;1.90;;;11.60;99.90;;;;;;5057535;28;20522;-79
2023/09/25 04:41:29;;;;;;;2.07;1.97;;;11.60;99.90;;;;;;5068697;28;20168;-80
2023/09/25 04:43:55;;;;;;;4.63;1.90;;;11.70;99.90;;;;;;5059235;28;20179;-80
2023/09/25 04:46:21;;;;;;;2.57;1.77;;;11.70;99.90;;;;;;5079180;28;20202;-78
2023/09/25 04:48:47;;;;;;;1.90;1.80;;;11.70;99.90;;;;;;5061626;28;20175;-77
2023/09/25 04:51:16;;;;;;;1.80;1.70;;;11.80;99.90;;;;;;5057227;28;20212;-78
2023/09/25 04:53:42;;;;;;;2.40;2.30;;;11.80;99.90;;;;;;5057410;28;20183;-78
2023/09/25 04:56:10;;;;;;;2.17;2.07;;;11.80;99.90;;;;;;5056950;28;20176;-78
2023/09/25 04:58:36;;;;;;;1.50;1.50;;;11.90;99.90;;;;;;5056662;28;20176;-78
2023/09/25 05:01:02;;;;;;;1.80;1.70;;;11.90;99.90;;;;;;5056069;28;20686;-79
2023/09/25 05:03:28;;;;;;;2.07;1.97;;;12.00;99.90;;;;;;5039292;28;20180;-84
2023/09/25 05:05:54;;;;;;;2.10;2.00;;;12.10;99.90;;;;;;5056043;28;20234;-81
2023/09/25 05:08:20;;;;;;;1.87;1.77;;;12.00;99.90;;;;;;5056477;28;20844;-81
2023/09/25 05:10:49;;;;;;;2.77;1.70;;;12.00;99.90;;;;;;5062921;28;20218;-80
2023/09/25 05:13:15;;;;;;;1.90;1.80;;;11.90;99.90;;;;;;5065869;28;20211;-80
2023/09/25 05:15:40;;;;;;;2.93;1.80;;;12.00;99.90;;;;;;5056531;28;20196;-82
2023/09/25 05:18:07;;;;;;;2.20;2.10;;;12.00;99.90;;;;;;5057070;28;20188;-80
2023/09/25 05:20:34;;;;;;;2.00;1.90;;;11.70;99.90;;;;;;5074420;28;20198;-81
2023/09/25 05:23:00;;;;;;;1.83;1.83;;;12.20;99.90;;;;;;5079817;28;20168;-81
2023/09/25 05:25:26;;;;;;;2.20;2.10;;;12.20;99.90;;;;;;5064054;28;20172;-80
2023/09/25 05:27:55;;;;;;;11.80;2.10;;;12.30;99.90;;;;;;5056197;28;20168;-81
2023/09/25 05:30:21;;;;;;;2.23;2.13;;;12.30;99.90;;;;;;5055787;28;20654;-81
2023/09/25 05:32:49;;;;;;;2.30;2.10;;;12.40;99.90;;;;;;5056429;28;20175;-79
2023/09/25 05:35:15;;;;;;;2.23;2.13;;;12.40;99.90;;;;;;5055857;28;20164;-79
2023/09/25 05:37:48;;;;;;;2.43;2.00;;;12.50;99.90;;;;;;5055918;28;20179;-82
2023/09/25 05:40:15;;;;;;;3.00;2.10;;;12.60;99.90;;;;;;5054604;28;20163;-80
2023/09/25 05:42:42;;;;;;;3.47;2.50;;;12.70;99.90;;;;;;5055241;28;20175;-80
2023/09/25 05:45:10;;;;;;;2.30;2.20;;;12.80;99.90;;;;;;5055202;28;20165;-78
2023/09/25 05:47:35;;;;;;;2.23;2.13;;;12.80;99.90;;;;;;5055244;28;20628;-81
2023/09/25 05:50:02;;;;;;;2.43;2.33;;;12.90;99.90;;;;;;5055513;28;20178;-81
2023/09/25 05:52:28;;;;;;;2.20;2.10;;;13.60;99.90;;;;;;5056454;28;20199;-81
2023/09/25 05:54:54;;;;;;;2.43;2.33;;;13.00;99.90;;;;;;5056596;28;20168;-81
2023/09/25 05:57:20;;;;;;;2.10;1.97;;;13.10;99.90;;;;;;5056322;28;20183;-81
2023/09/25 05:59:46;;;;;;;2.40;2.20;;;13.10;99.90;;;;;;5056204;28;20172;-80
2023/09/25 06:02:12;;;;;;;2.50;2.30;;;13.10;99.90;;;;;;5056436;28;20227;-79
2023/09/25 06:04:38;;;;;;;2.10;2.00;;;13.20;99.90;;;;;;5056942;28;20623;-80
2023/09/25 06:07:05;;;;;;;2.23;2.13;;;13.30;99.90;;;;;;5056735;28;20194;-81
2023/09/25 06:09:31;;;;;;;2.67;2.47;;;13.40;99.90;;;;;;5059474;28;20176;-82
2023/09/25 06:12:00;;;;;;;2.10;2.00;;;13.50;99.90;;;;;;5059180;28;20234;-83
2023/09/25 06:14:28;;;;;;;2.33;2.13;;;13.60;99.90;;;;;;5057009;28;20193;-80
2023/09/25 06:16:59;;;;;;;2.50;2.30;;;13.70;99.90;;;;;;5055927;28;20302;-78
2023/09/25 06:19:25;;;;;;;3.57;2.80;;;13.80;99.90;;;;;;5055186;28;20208;-80
2023/09/25 06:21:51;;;;;;;2.90;2.70;;;13.80;99.90;;;;;;5055407;28;20186;-79
2023/09/25 06:24:18;;;;;;;2.80;2.10;;;13.70;99.90;;;;;;5055079;28;20168;-83
2023/09/25 06:26:46;;;;;;;3.90;2.47;;;13.70;99.90;;;;;;5055993;28;20642;-80
2023/09/25 06:29:13;;;;;;;3.63;2.33;;;13.60;99.90;;;;;;5057650;28;20175;-83
2023/09/25 06:31:41;;;;;;;3.03;2.37;;;13.60;99.90;;;;;;5062264;28;20218;-81
2023/09/25 06:34:07;;;;;;;2.40;2.30;;;13.60;99.90;;;;;;5069901;28;20168;-80
2023/09/25 06:36:37;;;;;;;2.50;2.30;;;13.60;99.90;;;;;;5070862;28;20176;-80
2023/09/25 06:39:08;;;;;;;2.43;2.33;;;13.60;99.90;;;;;;5060273;28;20168;-80
2023/09/25 06:41:36;;;;;;;3.07;2.50;;;13.60;99.90;;;;;;5038860;28;20162;-81
2023/09/25 06:44:04;;;;;;;3.43;2.90;;;13.60;99.90;;;;;;5055943;28;20610;-80
2023/09/25 06:46:31;;;;;;;3.33;2.90;;;13.50;99.90;;;;;;5060856;28;20203;-81
2023/09/25 06:48:57;;;;;;;3.23;2.93;;;14.10;99.90;;;;;;5072694;28;20160;-80
2023/09/25 06:51:23;;;;;;;6.30;3.10;;;13.50;99.90;;;;;;5069368;28;20200;-80
2023/09/25 06:53:50;;;;;;;5.03;3.23;;;13.50;99.90;;;;;;5069995;28;20183;-78
2023/09/25 06:56:15;;;;;;;2.93;2.57;;;13.50;99.90;;;;;;5056587;28;20183;-80
2023/09/25 06:58:42;;;;;;;4.20;3.33;;;13.50;99.90;;;;;;5061306;28;20246;-79
2023/09/25 07:01:07;;;;;;;3.40;3.10;;;13.50;99.90;;;;;;5058589;28;20223;-79
2023/09/25 07:03:33;;;;;;;3.70;2.77;;;13.60;99.90;;;;;;5054882;28;20695;-81
2023/09/25 07:05:59;;;;;;;3.50;3.20;;;13.60;99.90;;;;;;5055136;28;20227;-80
2023/09/25 07:08:28;;;;;;;3.27;2.90;;;13.50;99.90;;;;;;5055035;28;20243;-81
2023/09/25 07:10:53;;;;;;;10.40;3.87;;;13.50;99.90;;;;;;5055043;28;20278;-80
2023/09/25 07:13:20;;;;;;;2.97;2.73;;;13.50;99.90;;;;;;5054721;28;20685;-80
2023/09/25 07:15:47;;;;;;;3.30;3.00;;;13.60;99.90;;;;;;5054782;28;20182;-80
2023/09/25 07:18:13;;;;;;;2.90;2.70;;;13.60;99.90;;;;;;5054607;28;20179;-81
2023/09/25 07:20:39;;;;;;;3.30;2.40;;;13.60;99.90;;;;;;5037820;28;20195;-81
2023/09/25 07:23:06;;;;;;;3.33;2.50;;;13.70;99.90;;;;;;5076291;28;20232;-80
2023/09/25 07:25:31;;;;;;;2.57;2.30;;;13.70;99.90;;;;;;5050433;28;20191;-79
2023/09/25 07:27:57;;;;;;;3.23;2.47;;;13.70;99.90;;;;;;5054051;28;20688;-80
2023/09/25 07:30:23;;;;;;;2.07;1.97;;;13.80;99.90;;;;;;5056164;28;20183;-81
2023/09/25 07:32:49;;;;;;;2.23;2.10;;;13.70;99.90;;;;;;5055043;28;20537;-81
2023/09/25 07:35:15;;;;;;;4.30;2.17;;;13.80;99.90;;;;;;5054867;28;20639;-79
2023/09/25 07:37:44;;;;;;;2.40;2.20;;;13.80;99.90;;;;;;5054628;28;20635;-79
2023/09/25 07:40:13;;;;;;;2.13;2.03;;;14.10;99.90;;;;;;5055401;28;20318;-79
2023/09/25 07:42:40;;;;;;;2.50;2.30;;;13.90;99.90;;;;;;5071914;28;20226;-79
2023/09/25 07:45:11;;;;;;;2.53;2.43;;;14.00;99.90;;;;;;5062231;28;20172;-79
2023/09/25 07:47:41;;;;;;;4.30;2.30;;;14.00;99.90;;;;;;5054129;28;20175;-80
2023/09/25 07:50:11;;;;;;;3.90;2.57;;;14.00;99.90;;;;;;5054428;28;20196;-80
2023/09/25 07:52:40;;;;;;;3.10;2.57;;;14.00;99.90;;;;;;5040362;28;20229;-79
2023/09/25 07:55:10;;;;;;;2.63;2.47;;;14.10;99.90;;;;;;5056224;28;20170;-79
2023/09/25 07:57:39;;;;;;;3.60;2.37;;;14.10;99.90;;;;;;5037995;28;20259;-81
2023/09/25 08:00:29;;;;;;;2.77;2.57;;;14.10;99.90;;;;;;5056267;28;20678;-81
2023/09/25 08:02:54;;;;;;;3.20;2.90;;;14.20;99.90;;;;;;5055358;28;20176;-80
2023/09/25 08:05:22;;;;;;;2.87;2.50;;;14.20;99.90;;;;;;5057803;28;20264;-81
2023/09/25 08:07:49;;;;;;;5.97;2.70;;;14.40;99.90;;;;;;5058408;28;20180;-81
2023/09/25 08:10:15;;;;;;;3.23;2.90;;;14.40;99.90;;;;;;5040266;28;20177;-81
2023/09/25 08:12:41;;;;;;;6.50;2.60;;;14.50;99.90;;;;;;5058217;28;20180;-81
2023/09/25 08:15:08;;;;;;;3.20;2.80;;;14.50;99.90;;;;;;5058861;28;20528;-83
2023/09/25 08:17:34;;;;;;;4.63;2.80;;;14.60;99.90;;;;;;5057640;28;20176;-82
2023/09/25 08:20:00;;;;;;;3.83;3.10;;;16.10;99.90;;;;;;5057931;28;20183;-81
2023/09/25 08:22:26;;;;;;;4.27;2.80;;;14.60;99.90;;;;;;5040138;28;20176;-80
2023/09/25 08:24:52;;;;;;;4.90;3.00;;;14.60;99.90;;;;;;5061581;28;20176;-80
2023/09/25 08:27:20;;;;;;;4.00;3.60;;;14.60;99.90;;;;;;5070144;28;20168;-79
2023/09/25 08:29:47;;;;;;;5.03;2.80;;;14.60;99.90;;;;;;5069263;28;20172;-82
2023/09/25 08:32:13;;;;;;;5.13;3.03;;;14.60;99.90;;;;;;5063045;28;20693;-81
2023/09/25 08:34:38;;;;;;;5.53;3.10;;;14.50;99.90;;;;;;5058236;28;20177;-79
2023/09/25 08:37:05;;;;;;;3.83;3.53;;;14.50;99.90;;;;;;5073813;28;20164;-81
2023/09/25 08:39:31;;;;;;;4.27;3.00;;;14.40;99.90;;;;;;5065444;28;20168;-79
2023/09/25 08:41:57;;;;;;;5.43;2.80;;;14.40;99.90;;;;;;5057435;28;20167;-81
2023/09/25 08:44:23;;;;;;;4.37;3.40;;;14.40;99.90;;;;;;5057152;28;20184;-80
2023/09/25 08:46:50;;;;;;;3.30;3.03;;;14.50;99.90;;;;;;5057253;28;20184;-80
2023/09/25 08:49:16;;;;;;;5.57;3.43;;;14.50;99.90;;;;;;5059176;28;20184;-80
2023/09/25 08:51:42;;;;;;;4.67;3.13;;;14.50;99.90;;;;;;5071786;28;20200;-81
2023/09/25 08:54:08;;;;;;;3.40;3.00;;;14.70;99.90;;;;;;5056986;28;20176;-80
2023/09/25 08:56:35;;;;;;;4.37;3.00;;;14.60;99.90;;;;;;5047465;28;20340;-80
2023/09/25 08:59:03;;;;;;;3.37;3.07;;;14.70;99.90;;;;;;5055391;28;20223;-81
2023/09/25 09:01:30;;;;;;;4.73;3.50;;;14.70;99.90;;;;;;5058639;28;20269;-80
2023/09/25 09:03:56;;;;;;;3.77;3.10;;;15.20;99.90;;;;;;5059997;28;20170;-81
2023/09/25 09:06:22;;;;;;;3.97;3.20;;;14.70;99.90;;;;;;5057177;28;20182;-78
2023/09/25 09:08:49;;;;;;;5.60;3.20;;;14.80;99.90;;;;;;5057458;28;20169;-80
2023/09/25 09:11:15;;;;;;;4.43;3.50;;;14.80;99.90;;;;;;5056875;28;20196;-79
2023/09/25 09:13:46;;;;;;;3.50;3.17;;;14.80;99.90;;;;;;5057397;28;20540;-80
2023/09/25 09:16:14;;;;;;;4.50;3.67;;;14.90;99.90;;;;;;5056955;28;20166;-79
2023/09/25 09:18:40;;;;;;;5.07;3.23;;;15.00;99.90;;;;;;5057255;28;20263;-80
2023/09/25 09:21:19;;;;;;;4.47;3.33;;;15.00;99.90;;;;;;5056637;28;20180;-79
2023/09/25 09:23:45;;;;;;;3.77;3.13;;;15.10;99.90;;;;;;5056661;28;20161;-78
2023/09/25 09:26:14;;;;;;;6.63;3.40;;;15.20;99.90;;;;;;5039493;28;20229;-80
2023/09/25 09:28:43;;;;;;;4.40;3.43;;;15.20;99.90;;;;;;5056932;28;20175;-79
2023/09/25 09:31:11;;;;;;;3.93;3.53;;;15.40;99.90;;;;;;5056901;28;20196;-80
2023/09/25 09:33:43;;;;;;;4.07;3.40;;;15.50;99.90;;;;;;5057957;28;20171;-81
2023/09/25 09:36:13;;;;;;;5.83;3.77;;;15.50;99.90;;;;;;5063279;28;20183;-80
2023/09/25 09:38:42;;;;;;;6.17;3.80;;;15.50;99.90;;;;;;5069140;28;20170;-81
2023/09/25 09:41:08;;;;;;;7.17;4.00;;;15.60;99.90;;;;;;5056187;28;20532;-79
2023/09/25 09:43:35;;;;;;;4.30;3.90;;;15.60;99.90;;;;;;5055810;28;20578;-79
2023/09/25 09:46:01;;;;;;;5.83;3.97;;;15.60;99.90;;;;;;5056094;28;20199;-81
2023/09/25 09:48:30;;;;;;;4.37;3.97;;;15.60;99.90;;;;;;5057108;28;20164;-79
2023/09/25 09:51:02;;;;;;;11.33;4.10;;;15.60;99.90;;;;;;5039154;28;20754;-79
2023/09/25 09:53:28;;;;;;;4.43;4.03;;;15.80;99.90;;;;;;5038837;28;20527;-79
2023/09/25 09:55:58;;;;;;;8.17;4.07;;;15.90;99.90;;;;;;5056015;28;20167;-80
2023/09/25 09:58:28;;;;;;;5.13;3.40;;;16.00;99.90;;;;;;5056190;28;20247;-80
2023/09/25 10:00:56;;;;;;;6.90;4.20;;;16.00;99.90;;;;;;5058911;28;20212;-80
2023/09/25 10:03:23;;;;;;;8.53;4.70;;;15.90;99.90;;;;;;5065717;28;20183;-80
2023/09/25 10:05:50;;;;;;;4.80;3.47;;;16.00;99.90;;;;;;5063233;28;20164;-81
2023/09/25 10:08:16;;;;;;;6.50;3.90;;;16.00;99.90;;;;;;5066380;28;20251;-81
2023/09/25 10:10:46;;;;;;;5.23;4.17;;;16.20;99.90;;;;;;5056872;28;20549;-81
2023/09/25 10:13:21;;;;;;;5.70;3.40;;;16.10;99.90;;;;;;5061228;28;20171;-80
2023/09/25 10:15:57;;;;;;;4.67;3.83;;;16.20;99.90;;;;;;5070060;28;20171;-80
2023/09/25 10:18:30;;;;;;;4.27;3.80;;;16.10;99.90;;;;;;5072790;28;20175;-83
2023/09/25 10:21:14;;;;;;;6.97;3.50;;;16.20;99.90;;;;;;5071291;28;20206;-80
2023/09/25 10:23:48;;;;;;;4.37;3.30;;;16.30;99.90;;;;;;5057842;28;20611;-81
2023/09/25 10:26:26;;;;;;;4.60;3.60;;;16.30;99.90;;;;;;5055053;28;20202;-80
2023/09/25 10:29:14;;;;;;;5.00;3.67;;;16.40;99.90;;;;;;5054951;28;20206;-81
2023/09/25 10:31:46;;;;;;;4.50;3.30;;;16.40;99.90;;;;;;5054853;28;20217;-78
2023/09/25 10:34:11;;;;;;;4.20;3.80;;;16.40;99.90;;;;;;5037402;28;20266;-80
2023/09/25 10:36:41;;;;;;;6.33;3.77;;;16.40;99.90;;;;;;5055365;28;20210;-79
2023/09/25 10:39:15;;;;;;;4.03;3.63;;;16.40;99.90;;;;;;5037187;28;20730;-79
2023/09/25 10:41:42;;;;;;;5.57;3.60;;;16.40;99.90;;;;;;5059557;28;20694;-79
2023/09/25 10:44:12;;;;;;;6.03;3.40;;;16.50;99.90;;;;;;5037102;28;20176;-80
2023/09/25 10:46:38;;;;;;;5.93;3.50;;;16.70;99.90;;;;;;5056215;28;20254;-78
2023/09/25 10:49:06;;;;;;;5.07;3.63;;;16.80;99.90;;;;;;5057888;28;20172;-78
2023/09/25 10:51:32;;;;;;;3.67;2.43;;;17.00;99.90;;;;;;5068548;28;20290;-79
2023/09/25 10:53:57;;;;;;;2.40;2.20;;;17.10;99.90;;;;;;5064829;28;20218;-78
2023/09/25 10:56:23;;;;;;;3.90;2.13;;;16.70;99.90;;;;;;5057045;28;20716;-80
2023/09/25 10:58:53;;;;;;;1.77;1.70;;;16.90;99.90;;;;;;5065495;28;20175;-77
2023/09/25 11:01:28;;;;;;;2.10;2.00;;;17.00;99.90;;;;;;5069352;28;20235;-83
2023/09/25 11:03:56;;;;;;;3.43;2.10;;;17.20;99.90;;;;;;5055268;28;20172;-81
2023/09/25 11:06:23;;;;;;;2.87;2.47;;;17.20;99.90;;;;;;5037386;28;20266;-82
2023/09/25 11:09:07;;;;;;;2.00;1.87;;;17.30;99.90;;;;;;5055799;28;20180;-82
2023/09/25 11:11:33;;;;;;;2.10;2.00;;;17.40;99.90;;;;;;5059430;28;20229;-80
2023/09/25 11:13:59;;;;;;;2.53;1.93;;;17.40;99.90;;;;;;5054766;28;20203;-80
2023/09/25 11:16:28;;;;;;;1.97;1.80;;;17.10;99.90;;;;;;5037089;28;20234;-82
2023/09/25 11:19:07;;;;;;;2.20;2.10;;;17.70;99.90;;;;;;5054930;28;20221;-81
2023/09/25 11:21:32;;;;;;;1.87;1.77;;;17.90;99.90;;;;;;5055320;28;20168;-79
2023/09/25 11:23:59;;;;;;;2.07;1.97;;;18.00;99.90;;;;;;5055085;28;20170;-81
2023/09/25 11:26:27;;;;;;;3.90;2.20;;;18.20;99.90;;;;;;5054567;28;20206;-81
2023/09/25 11:28:57;;;;;;;2.00;1.90;;;18.20;99.90;;;;;;5054742;28;20187;-82
2023/09/25 11:31:25;;;;;;;1.57;1.50;;;18.10;99.90;;;;;;5054679;28;20203;-81
2023/09/25 11:33:51;;;;;;;1.73;1.63;;;18.10;99.90;;;;;;5054835;28;20529;-80
2023/09/25 11:36:19;;;;;;;1.53;1.53;;;18.20;99.90;;;;;;5054844;28;20171;-80
2023/09/25 11:38:49;;;;;;;2.47;2.20;;;18.10;99.90;;;;;;5057033;28;20190;-79
2023/09/25 11:41:15;;;;;;;2.70;1.83;;;17.90;99.90;;;;;;5048303;28;20168;-80
2023/09/25 11:43:41;;;;;;;3.07;2.10;;;18.00;99.90;;;;;;5060141;28;20627;-80
2023/09/25 11:46:07;;;;;;;1.80;1.70;;;18.00;99.90;;;;;;5059127;28;20651;-79
2023/09/25 11:48:33;;;;;;;1.73;1.63;;;18.00;99.90;;;;;;5059826;28;20535;-81
2023/09/25 11:51:00;;;;;;;2.70;1.90;;;18.10;99.90;;;;;;5072477;28;20633;-81
2023/09/25 11:53:26;;;;;;;1.50;1.50;;;18.10;99.90;;;;;;5063759;28;20187;-82
2023/09/25 11:55:53;;;;;;;1.83;1.73;;;18.10;99.90;;;;;;5068928;28;20183;-81
2023/09/25 11:58:19;;;;;;;1.70;1.60;;;18.20;99.90;;;;;;5040767;28;20187;-80
2023/09/25 12:00:46;;;;;;;1.87;1.73;;;18.20;99.90;;;;;;5057947;28;20207;-82
2023/09/25 12:03:11;;;;;;;1.70;1.60;;;18.30;99.90;;;;;;5040209;28;20183;-84
2023/09/25 12:05:37;;;;;;;1.77;1.67;;;18.50;99.90;;;;;;5058566;28;20502;-79
2023/09/25 12:08:07;;;;;;;1.83;1.70;;;18.40;99.90;;;;;;5058894;28;20201;-83
2023/09/25 12:10:37;;;;;;;1.60;1.60;;;18.30;99.90;;;;;;5081281;28;20214;-82
2023/09/25 12:13:07;;;;;;;2.07;1.97;;;18.30;99.90;;;;;;5068818;28;20254;-80
2023/09/25 12:15:34;;;;;;;1.90;1.80;;;18.30;99.90;;;;;;5059678;28;20254;-78
2023/09/25 12:18:00;;;;;;;2.10;1.90;;;18.40;99.90;;;;;;5058097;28;20225;-78
2023/09/25 12:20:27;;;;;;;2.27;1.60;;;18.50;99.90;;;;;;5073249;28;20231;-80
2023/09/25 12:22:54;;;;;;;1.50;1.50;;;18.80;99.90;;;;;;5077322;28;20168;-81
2023/09/25 12:25:21;;;;;;;1.53;1.53;;;18.80;99.90;;;;;;5075884;28;20230;-82
2023/09/25 12:27:47;;;;;;;1.70;1.60;;;18.70;99.90;;;;;;5057711;28;20208;-80
2023/09/25 12:30:17;;;;;;;1.70;1.60;;;18.80;99.90;;;;;;5057394;28;20172;-81
2023/09/25 12:32:45;;;;;;;2.13;1.80;;;18.90;99.90;;;;;;5057169;28;20209;-81
2023/09/25 12:35:14;;;;;;;1.53;1.50;;;19.00;99.90;;;;;;5039261;28;20172;-81
2023/09/25 12:37:41;;;;;;;2.07;1.97;;;19.10;99.90;;;;;;5056974;28;20171;-81
2023/09/25 12:40:08;;;;;;;1.60;1.60;;;19.20;99.90;;;;;;5056858;28;20160;-81
2023/09/25 12:42:34;;;;;;;2.00;1.60;;;19.30;99.90;;;;;;5057137;28;20251;-80
2023/09/25 12:45:00;;;;;;;1.97;1.87;;;19.20;99.90;;;;;;5057096;28;20176;-80
2023/09/25 12:47:26;;;;;;;2.13;1.87;;;19.10;99.90;;;;;;5069249;28;20159;-82